Time;durP1;ratioP1;P1;durP2;ratioP2;P2;SDS_P1;SDS_P2;PMS_P1;PMS_P2;Temp;Humidity;BMP_temperature;BMP_pressure;BME280_temperature;BME280_humidity;BME280_pressure;Samples;Min_cycle;Max_cycle;Signal;HPM_P1;HPM_P2
2022/08/09 00:00:11;;;;;;;;;;;24.20;40.70;;;;;;5014148;28;19925;-70
2022/08/09 00:02:38;;;;;;;;;;;24.20;40.70;;;;;;5015788;28;20472;-69
2022/08/09 00:05:05;;;;;;;;;;;24.10;40.90;;;;;;5019896;28;19928;-68
2022/08/09 00:07:33;;;;;;;;;;;24.00;41.00;;;;;;5015175;28;19925;-73
2022/08/09 00:10:00;;;;;;;;;;;24.00;41.10;;;;;;5019574;28;19937;-69
2022/08/09 00:12:26;;;;;;;;;;;24.00;41.20;;;;;;5026388;28;19932;-69
2022/08/09 00:14:53;;;;;;;;;;;23.90;41.20;;;;;;5039460;28;19925;-68
2022/08/09 00:17:19;;;;;;;;;;;23.90;41.40;;;;;;5018065;28;19929;-69
2022/08/09 00:19:47;;;;;;;;;;;23.90;41.50;;;;;;5020152;28;19963;-69
2022/08/09 00:22:13;;;;;;;;;;;23.80;41.50;;;;;;5027212;28;19995;-70
2022/08/09 00:24:41;;;;;;;;;;;23.80;41.70;;;;;;5030980;28;20117;-71
2022/08/09 00:27:08;;;;;;;;;;;23.80;42.00;;;;;;5023361;28;19929;-70
2022/08/09 00:29:34;;;;;;;;;;;23.70;41.90;;;;;;5014447;28;19925;-68
2022/08/09 00:32:01;;;;;;;;;;;23.70;42.00;;;;;;5016936;28;19929;-68
2022/08/09 00:34:27;;;;;;;;;;;23.70;42.20;;;;;;5030895;28;19948;-68
2022/08/09 00:36:54;;;;;;;;;;;23.60;42.30;;;;;;5017456;28;19967;-68
2022/08/09 00:39:21;;;;;;;;;;;23.60;42.30;;;;;;5026476;28;19935;-70
2022/08/09 00:41:49;;;;;;;;;;;23.50;42.30;;;;;;5031348;28;20319;-68
2022/08/09 00:44:16;;;;;;;;;;;23.50;42.60;;;;;;5018578;28;19933;-70
2022/08/09 00:46:43;;;;;;;;;;;23.50;42.80;;;;;;5017423;28;19929;-68
2022/08/09 00:49:09;;;;;;;;;;;23.40;43.00;;;;;;5021273;28;20482;-70
2022/08/09 00:51:36;;;;;;;;;;;23.40;43.20;;;;;;5033615;28;19946;-69
2022/08/09 00:54:02;;;;;;;;;;;23.40;43.50;;;;;;5021815;28;19989;-68
2022/08/09 00:56:30;;;;;;;;;;;23.30;43.70;;;;;;5029269;28;19955;-68
2022/08/09 00:58:58;;;;;;;;;;;23.30;43.40;;;;;;5019989;28;19998;-68
2022/08/09 01:01:32;;;;;;;;;;;23.30;43.60;;;;;;5020582;28;19948;-69
2022/08/09 01:04:02;;;;;;;;;;;23.20;43.70;;;;;;5044960;28;19947;-71
2022/08/09 01:06:31;;;;;;;;;;;23.20;43.70;;;;;;5017481;28;19951;-70
2022/08/09 01:09:02;;;;;;;;;;;23.20;43.70;;;;;;5022681;28;19987;-70
2022/08/09 01:11:39;;;;;;;;;;;23.10;43.70;;;;;;5028742;28;19943;-69
2022/08/09 01:14:12;;;;;;;;;;;23.10;43.90;;;;;;5032782;28;19933;-68
2022/08/09 01:16:40;;;;;;;;;;;23.10;44.20;;;;;;5028038;28;20466;-70
2022/08/09 01:19:13;;;;;;;;;;;23.10;44.20;;;;;;5015072;28;19955;-69
2022/08/09 01:21:44;;;;;;;;;;;23.00;44.20;;;;;;5031012;28;20571;-68
2022/08/09 01:24:14;;;;;;;;;;;23.00;44.20;;;;;;5036111;28;19979;-68
2022/08/09 01:26:46;;;;;;;;;;;22.90;44.30;;;;;;5031140;28;19928;-68
2022/08/09 01:29:14;;;;;;;;;;;23.00;44.40;;;;;;5019372;28;19933;-70
2022/08/09 01:31:41;;;;;;;;;;;22.90;44.40;;;;;;5020270;28;19940;-68
2022/08/09 01:34:11;;;;;;;;;;;22.80;44.50;;;;;;5035623;28;19925;-68
2022/08/09 01:36:38;;;;;;;;;;;22.80;44.70;;;;;;5027346;28;19963;-67
2022/08/09 01:39:05;;;;;;;;;;;22.80;44.80;;;;;;5034424;28;19970;-69
2022/08/09 01:41:32;;;;;;;;;;;22.70;44.60;;;;;;5031866;28;19956;-68
2022/08/09 01:44:01;;;;;;;;;;;22.70;44.70;;;;;;5019699;28;19943;-69
2022/08/09 01:46:29;;;;;;;;;;;22.70;44.70;;;;;;5014697;28;19958;-70
2022/08/09 01:48:58;;;;;;;;;;;22.60;44.70;;;;;;5035140;28;19949;-70
2022/08/09 01:51:25;;;;;;;;;;;22.60;44.70;;;;;;5031583;28;19940;-68
2022/08/09 01:53:53;;;;;;;;;;;22.60;44.90;;;;;;5021607;28;20457;-69
2022/08/09 01:56:21;;;;;;;;;;;22.60;44.90;;;;;;5026394;28;19967;-68
2022/08/09 01:58:48;;;;;;;;;;;22.50;44.90;;;;;;5014979;28;19936;-68
2022/08/09 02:01:16;;;;;;;;;;;22.50;44.90;;;;;;5022820;28;19959;-69
2022/08/09 02:03:43;;;;;;;;;;;22.50;45.10;;;;;;5031801;28;19950;-69
2022/08/09 02:06:10;;;;;;;;;;;22.40;45.10;;;;;;5026643;28;19959;-70
2022/08/09 02:08:38;;;;;;;;;;;22.40;45.00;;;;;;5022292;28;19946;-69
2022/08/09 02:11:06;;;;;;;;;;;22.40;44.90;;;;;;5033171;28;19947;-69
2022/08/09 02:13:33;;;;;;;;;;;22.30;45.10;;;;;;5037614;28;19935;-69
2022/08/09 02:16:00;;;;;;;;;;;22.30;45.10;;;;;;5031276;28;20447;-69
2022/08/09 02:18:29;;;;;;;;;;;22.30;45.20;;;;;;5020551;28;19925;-69
2022/08/09 02:20:57;;;;;;;;;;;22.30;45.30;;;;;;5025638;28;19940;-69
2022/08/09 02:23:26;;;;;;;;;;;22.20;45.50;;;;;;5024415;28;19936;-71
2022/08/09 02:25:55;;;;;;;;;;;22.20;45.40;;;;;;5030848;28;19971;-68
2022/08/09 02:28:24;;;;;;;;;;;22.20;45.40;;;;;;5021906;28;19956;-70
2022/08/09 02:30:54;;;;;;;;;;;22.10;45.60;;;;;;5011251;28;20246;-69
2022/08/09 02:33:23;;;;;;;;;;;22.10;45.80;;;;;;5031950;28;20431;-68
2022/08/09 02:35:54;;;;;;;;;;;22.10;45.90;;;;;;5029786;28;19968;-70
2022/08/09 02:38:23;;;;;;;;;;;22.00;45.80;;;;;;5033654;28;19925;-69
2022/08/09 02:40:50;;;;;;;;;;;22.00;45.80;;;;;;5040964;28;19970;-69
2022/08/09 02:43:18;;;;;;;;;;;22.00;46.00;;;;;;5020205;28;19936;-69
2022/08/09 02:45:45;;;;;;;;;;;21.90;45.90;;;;;;5023755;28;19970;-69
2022/08/09 02:48:14;;;;;;;;;;;21.90;45.90;;;;;;5025963;28;19986;-69
2022/08/09 02:50:42;;;;;;;;;;;21.90;45.90;;;;;;5033573;28;19950;-69
2022/08/09 02:53:12;;;;;;;;;;;21.80;46.00;;;;;;5019774;28;19925;-66
2022/08/09 02:55:40;;;;;;;;;;;21.80;46.00;;;;;;5028706;28;19955;-72
2022/08/09 02:58:08;;;;;;;;;;;21.80;46.00;;;;;;5025056;28;20290;-69
2022/08/09 03:00:36;;;;;;;;;;;21.70;45.90;;;;;;5018591;28;19929;-69
2022/08/09 03:03:04;;;;;;;;;;;21.70;45.90;;;;;;5023448;28;19945;-69
2022/08/09 03:05:32;;;;;;;;;;;21.70;46.10;;;;;;5026857;28;19978;-68
2022/08/09 03:07:59;;;;;;;;;;;21.70;46.20;;;;;;5017739;28;19932;-70
2022/08/09 03:10:27;;;;;;;;;;;21.60;46.40;;;;;;5029977;28;20372;-70
2022/08/09 03:12:54;;;;;;;;;;;21.60;46.40;;;;;;5022687;28;20455;-68
2022/08/09 03:15:21;;;;;;;;;;;21.60;46.20;;;;;;5038643;28;19925;-69
2022/08/09 03:17:49;;;;;;;;;;;21.50;46.20;;;;;;5011933;28;20477;-70
2022/08/09 03:20:16;;;;;;;;;;;21.50;46.20;;;;;;5023982;28;19924;-71
2022/08/09 03:22:45;;;;;;;;;;;21.50;46.20;;;;;;5023970;28;20340;-69
2022/08/09 03:25:13;;;;;;;;;;;21.50;46.40;;;;;;5026348;28;19929;-68
2022/08/09 03:27:41;;;;;;;;;;;21.40;46.40;;;;;;5021525;28;19926;-69
2022/08/09 03:30:08;;;;;;;;;;;21.40;46.40;;;;;;5021247;28;19948;-69
2022/08/09 03:32:35;;;;;;;;;;;21.40;46.40;;;;;;5020218;28;19982;-70
2022/08/09 03:35:02;;;;;;;;;;;21.40;46.50;;;;;;5030948;28;19963;-69
2022/08/09 03:37:28;;;;;;;;;;;21.30;46.70;;;;;;5026550;28;19933;-69
2022/08/09 03:39:55;;;;;;;;;;;21.30;46.70;;;;;;5030305;28;20490;-69
2022/08/09 03:42:22;;;;;;;;;;;21.30;46.60;;;;;;5031242;28;19982;-70
2022/08/09 03:44:49;;;;;;;;;;;21.20;46.60;;;;;;5018048;28;20653;-69
2022/08/09 03:47:16;;;;;;;;;;;21.20;46.70;;;;;;5016081;28;20472;-70
2022/08/09 03:49:43;;;;;;;;;;;21.20;46.80;;;;;;5029674;28;19967;-70
2022/08/09 03:52:10;;;;;;;;;;;21.20;46.80;;;;;;5031309;28;19937;-69
2022/08/09 03:54:38;;;;;;;;;;;21.10;46.70;;;;;;5019231;28;20324;-68
2022/08/09 03:57:06;;;;;;;;;;;21.10;46.70;;;;;;5032149;28;20038;-70
2022/08/09 03:59:33;;;;;;;;;;;21.10;46.80;;;;;;5021910;28;20007;-69
2022/08/09 04:02:01;;;;;;;;;;;21.00;47.00;;;;;;5011190;28;19936;-68
2022/08/09 04:04:28;;;;;;;;;;;21.00;47.10;;;;;;5036138;28;19961;-70
2022/08/09 04:06:54;;;;;;;;;;;21.00;47.30;;;;;;5021595;28;20455;-68
2022/08/09 04:09:21;;;;;;;;;;;21.00;47.30;;;;;;5023952;28;20552;-68
2022/08/09 04:11:57;;;;;;;;;;;20.90;47.30;;;;;;5034238;28;19947;-70
2022/08/09 04:14:24;;;;;;;;;;;20.90;47.20;;;;;;5032382;28;20457;-67
2022/08/09 04:16:51;;;;;;;;;;;20.90;47.40;;;;;;5024011;28;20385;-68
2022/08/09 04:19:18;;;;;;;;;;;20.80;47.30;;;;;;5021191;28;19925;-70
2022/08/09 04:21:45;;;;;;;;;;;20.80;47.40;;;;;;5036159;28;20552;-70
2022/08/09 04:24:12;;;;;;;;;;;20.80;47.70;;;;;;5021997;28;20423;-70
2022/08/09 04:26:38;;;;;;;;;;;20.80;47.60;;;;;;5039341;28;19951;-69
2022/08/09 04:29:05;;;;;;;;;;;20.70;47.60;;;;;;5016005;28;19940;-69
2022/08/09 04:31:31;;;;;;;;;;;20.70;47.60;;;;;;5016051;28;19952;-69
2022/08/09 04:33:58;;;;;;;;;;;20.70;47.80;;;;;;5035351;28;19944;-69
2022/08/09 04:36:27;;;;;;;;;;;20.70;48.00;;;;;;5026972;28;20446;-68
2022/08/09 04:38:54;;;;;;;;;;;20.60;47.90;;;;;;5023190;28;19942;-69
2022/08/09 04:41:21;;;;;;;;;;;20.60;47.80;;;;;;5040841;28;19936;-68
2022/08/09 04:43:47;;;;;;;;;;;20.60;47.90;;;;;;5022401;28;19943;-71
2022/08/09 04:46:14;;;;;;;;;;;20.50;47.90;;;;;;5017390;28;19956;-68
2022/08/09 04:48:40;;;;;;;;;;;20.50;47.80;;;;;;5017069;28;19963;-69
2022/08/09 04:51:07;;;;;;;;;;;20.50;48.00;;;;;;5035510;28;19924;-69
2022/08/09 04:53:35;;;;;;;;;;;20.50;48.00;;;;;;5031094;28;19929;-69
2022/08/09 04:56:01;;;;;;;;;;;20.50;48.00;;;;;;5026194;28;19956;-68
2022/08/09 04:58:28;;;;;;;;;;;20.40;47.90;;;;;;5027117;28;19936;-69
2022/08/09 05:00:55;;;;;;;;;;;20.40;48.00;;;;;;5019215;28;19964;-69
2022/08/09 05:03:22;;;;;;;;;;;20.40;48.10;;;;;;5023920;28;20273;-69
2022/08/09 05:05:48;;;;;;;;;;;20.30;48.20;;;;;;5033120;28;19959;-68
2022/08/09 05:08:15;;;;;;;;;;;20.30;48.20;;;;;;5019994;28;20062;-71
2022/08/09 05:10:43;;;;;;;;;;;20.30;48.20;;;;;;5041474;28;20404;-70
2022/08/09 05:13:09;;;;;;;;;;;20.30;48.30;;;;;;5028231;28;19961;-70
2022/08/09 05:15:36;;;;;;;;;;;20.20;48.10;;;;;;5034890;28;20485;-69
2022/08/09 05:18:03;;;;;;;;;;;20.20;48.40;;;;;;5020142;28;19940;-69
2022/08/09 05:20:29;;;;;;;;;;;20.20;48.40;;;;;;5027222;28;19936;-69
2022/08/09 05:22:56;;;;;;;;;;;20.20;48.50;;;;;;5041670;28;20307;-69
2022/08/09 05:25:23;;;;;;;;;;;20.20;48.20;;;;;;5033051;28;19952;-66
2022/08/09 05:27:51;;;;;;;;;;;20.10;48.80;;;;;;5028720;28;19946;-69
2022/08/09 05:30:18;;;;;;;;;;;20.10;48.50;;;;;;5020822;28;20464;-69
2022/08/09 05:32:44;;;;;;;;;;;20.20;54.70;;;;;;5018062;28;19947;-72
2022/08/09 05:35:11;;;;;;;;;;;20.10;48.90;;;;;;5030141;28;19955;-69
2022/08/09 05:37:38;;;;;;;;;;;20.10;49.00;;;;;;5031194;28;19939;-69
2022/08/09 05:40:05;;;;;;;;;;;20.10;49.00;;;;;;5029357;28;19939;-70
2022/08/09 05:42:32;;;;;;;;;;;20.00;49.00;;;;;;5031420;28;19932;-68
2022/08/09 05:45:00;;;;;;;;;;;20.00;49.00;;;;;;5020580;28;19964;-69
2022/08/09 05:47:27;;;;;;;;;;;20.00;49.20;;;;;;5019900;28;19952;-70
2022/08/09 05:49:54;;;;;;;;;;;20.00;49.20;;;;;;5021841;28;19963;-69
2022/08/09 05:52:21;;;;;;;;;;;20.00;49.70;;;;;;5031736;28;20579;-68
2022/08/09 05:54:48;;;;;;;;;;;20.00;48.90;;;;;;5020358;28;20022;-69
2022/08/09 05:57:14;;;;;;;;;;;20.00;59.60;;;;;;5033564;28;19971;-69
2022/08/09 05:59:41;;;;;;;;;;;20.00;61.60;;;;;;5019136;28;19975;-69
2022/08/09 06:02:09;;;;;;;;;;;20.00;61.30;;;;;;5019687;28;19979;-69
2022/08/09 06:04:36;;;;;;;;;;;20.00;54.70;;;;;;5027568;28;19955;-68
2022/08/09 06:07:03;;;;;;;;;;;20.20;54.70;;;;;;5025461;28;19984;-68
2022/08/09 06:09:30;;;;;;;;;;;20.40;55.20;;;;;;5014762;28;20438;-68
2022/08/09 06:11:56;;;;;;;;;;;20.30;55.80;;;;;;5029155;28;19955;-69
2022/08/09 06:14:23;;;;;;;;;;;20.00;54.90;;;;;;5031682;28;20459;-68
2022/08/09 06:16:49;;;;;;;;;;;20.10;55.30;;;;;;5022818;28;20353;-69
2022/08/09 06:19:17;;;;;;;;;;;20.60;54.70;;;;;;5021328;28;19949;-70
2022/08/09 06:21:44;;;;;;;;;;;19.90;54.10;;;;;;5030764;28;20152;-70
2022/08/09 06:24:10;;;;;;;;;;;20.00;54.30;;;;;;5039310;28;20336;-68
2022/08/09 06:26:40;;;;;;;;;;;19.90;55.60;;;;;;5030217;28;20447;-69
2022/08/09 06:29:08;;;;;;;;;;;20.00;54.30;;;;;;5018147;28;21311;-68
2022/08/09 06:31:35;;;;;;;;;;;19.90;54.20;;;;;;5016397;28;20508;-69
2022/08/09 06:34:01;;;;;;;;;;;20.00;54.50;;;;;;5021295;28;20025;-69
2022/08/09 06:36:29;;;;;;;;;;;19.90;54.10;;;;;;5036299;28;19968;-69
2022/08/09 06:38:56;;;;;;;;;;;20.00;53.90;;;;;;5021249;28;19943;-68
2022/08/09 06:41:23;;;;;;;;;;;19.00;53.10;;;;;;5035044;28;19936;-68
2022/08/09 06:43:50;;;;;;;;;;;20.00;53.10;;;;;;5023150;28;20050;-68
2022/08/09 06:46:16;;;;;;;;;;;19.90;53.30;;;;;;5017332;28;19979;-69
2022/08/09 06:48:43;;;;;;;;;;;19.90;53.60;;;;;;5019461;28;20424;-71
2022/08/09 06:51:10;;;;;;;;;;;19.90;53.70;;;;;;5031834;28;20318;-70
2022/08/09 06:53:38;;;;;;;;;;;20.00;53.30;;;;;;5029897;28;20123;-69
2022/08/09 06:56:05;;;;;;;;;;;20.00;53.90;;;;;;5024606;28;19995;-68
2022/08/09 06:58:31;;;;;;;;;;;19.70;52.60;;;;;;5030642;28;20335;-69
2022/08/09 07:00:58;;;;;;;;;;;20.10;52.50;;;;;;5018403;28;20002;-70
2022/08/09 07:03:25;;;;;;;;;;;20.30;53.40;;;;;;5021103;28;20122;-69
2022/08/09 07:05:51;;;;;;;;;;;20.10;53.70;;;;;;5033849;28;20003;-69
2022/08/09 07:08:18;;;;;;;;;;;20.10;53.50;;;;;;5027154;28;19948;-70
2022/08/09 07:10:46;;;;;;;;;;;20.10;53.30;;;;;;5036296;28;20388;-70
2022/08/09 07:13:12;;;;;;;;;;;20.10;53.90;;;;;;5031304;28;19944;-68
2022/08/09 07:15:39;;;;;;;;;;;20.20;53.90;;;;;;5021220;28;19967;-70
2022/08/09 07:18:05;;;;;;;;;;;20.20;53.90;;;;;;5017245;28;19959;-69
2022/08/09 07:20:32;;;;;;;;;;;20.10;53.60;;;;;;5013706;28;19945;-68
2022/08/09 07:22:59;;;;;;;;;;;20.30;53.10;;;;;;5040260;28;19946;-70
2022/08/09 07:25:26;;;;;;;;;;;20.30;53.60;;;;;;5031523;28;19987;-68
2022/08/09 07:27:54;;;;;;;;;;;20.20;54.20;;;;;;5024457;28;20394;-69
2022/08/09 07:30:20;;;;;;;;;;;20.70;54.20;;;;;;5011961;28;20346;-69
2022/08/09 07:32:47;;;;;;;;;;;20.30;53.40;;;;;;5018862;28;19954;-69
2022/08/09 07:35:13;;;;;;;;;;;20.40;54.10;;;;;;5031220;28;19966;-70
2022/08/09 07:37:40;;;;;;;;;;;20.70;56.30;;;;;;5026153;28;19956;-70
2022/08/09 07:40:08;;;;;;;;;;;20.40;52.80;;;;;;5029455;28;20307;-69
2022/08/09 07:42:34;;;;;;;;;;;20.60;54.00;;;;;;5027100;28;19939;-69
2022/08/09 07:45:02;;;;;;;;;;;20.50;55.40;;;;;;5015848;28;19976;-69
2022/08/09 07:47:29;;;;;;;;;;;20.50;55.40;;;;;;5017697;28;19957;-71
2022/08/09 07:49:55;;;;;;;;;;;20.70;53.50;;;;;;5018126;28;19940;-69
2022/08/09 07:52:22;;;;;;;;;;;20.50;52.40;;;;;;5040111;28;19959;-69
2022/08/09 07:54:48;;;;;;;;;;;20.60;53.90;;;;;;5018450;28;20829;-69
2022/08/09 07:57:15;;;;;;;;;;;20.60;53.60;;;;;;5036354;28;19970;-69
2022/08/09 07:59:41;;;;;;;;;;;20.60;53.70;;;;;;5027145;28;19954;-69
2022/08/09 08:02:09;;;;;;;;;;;20.70;53.00;;;;;;5015759;28;19986;-69
2022/08/09 08:04:36;;;;;;;;;;;20.80;52.90;;;;;;5029738;28;19940;-70
2022/08/09 08:07:03;;;;;;;;;;;20.70;53.00;;;;;;5024954;28;19942;-71
2022/08/09 08:09:30;;;;;;;;;;;21.10;52.70;;;;;;5026466;28;20032;-71
2022/08/09 08:11:56;;;;;;;;;;;21.10;52.20;;;;;;5044454;28;19955;-71
2022/08/09 08:14:23;;;;;;;;;;;20.90;53.30;;;;;;5026116;28;19981;-71
2022/08/09 08:16:49;;;;;;;;;;;20.90;53.50;;;;;;5022117;28;19968;-71
2022/08/09 08:19:17;;;;;;;;;;;21.10;53.30;;;;;;5024480;28;19948;-70
2022/08/09 08:21:44;;;;;;;;;;;21.20;52.80;;;;;;5036409;28;19954;-70
2022/08/09 08:24:10;;;;;;;;;;;21.10;53.20;;;;;;5024496;28;19975;-69
2022/08/09 08:26:37;;;;;;;;;;;20.90;53.40;;;;;;5032501;28;19974;-69
2022/08/09 08:29:03;;;;;;;;;;;21.10;52.50;;;;;;5019505;28;19952;-68
2022/08/09 08:31:30;;;;;;;;;;;21.10;52.20;;;;;;5018380;28;19968;-68
2022/08/09 08:33:56;;;;;;;;;;;21.20;52.00;;;;;;5019351;28;19963;-68
2022/08/09 08:36:25;;;;;;;;;;;21.40;53.40;;;;;;5040254;28;19975;-68
2022/08/09 08:38:51;;;;;;;;;;;21.50;52.80;;;;;;5025005;28;20000;-68
2022/08/09 08:41:18;;;;;;;;;;;21.30;53.20;;;;;;5038647;28;19957;-70
2022/08/09 08:43:45;;;;;;;;;;;21.10;52.70;;;;;;5019596;28;19961;-68
2022/08/09 08:46:13;;;;;;;;;;;21.50;63.60;;;;;;5020218;28;19983;-68
2022/08/09 08:48:39;;;;;;;;;;;21.60;52.10;;;;;;5029922;28;19947;-68
2022/08/09 08:51:06;;;;;;;;;;;21.50;51.00;;;;;;5030253;28;19970;-68
2022/08/09 08:53:35;;;;;;;;;;;21.70;51.10;;;;;;5022129;28;19949;-69
2022/08/09 08:56:01;;;;;;;;;;;21.70;52.60;;;;;;5025304;28;19999;-68
2022/08/09 08:58:29;;;;;;;;;;;21.70;51.40;;;;;;5033012;28;19976;-69
2022/08/09 09:00:56;;;;;;;;;;;21.80;51.60;;;;;;5022555;28;20361;-67
2022/08/09 09:03:25;;;;;;;;;;;22.20;51.00;;;;;;5035180;28;19949;-69
2022/08/09 09:05:55;;;;;;;;;;;21.90;51.90;;;;;;5040785;28;19978;-70
2022/08/09 09:08:22;;;;;;;;;;;21.90;50.70;;;;;;5020305;28;19966;-70
2022/08/09 09:10:50;;;;;;;;;;;24.30;51.60;;;;;;5039139;28;20001;-69
2022/08/09 09:13:17;;;;;;;;;;;22.00;50.00;;;;;;5033273;28;19965;-68
2022/08/09 09:15:44;;;;;;;;;;;22.10;45.90;;;;;;5021642;28;19929;-71
2022/08/09 09:18:13;;;;;;;;;;;22.20;46.50;;;;;;5019985;28;19925;-69
2022/08/09 09:20:42;;;;;;;;;;;22.20;46.30;;;;;;5016620;28;19925;-68
2022/08/09 09:23:08;;;;;;;;;;;22.30;46.20;;;;;;5042165;28;19944;-70
2022/08/09 09:25:36;;;;;;;;;;;22.40;46.00;;;;;;5042477;28;19929;-69
2022/08/09 09:28:05;;;;;;;;;;;22.40;45.90;;;;;;5031642;28;19925;-69
2022/08/09 09:30:32;;;;;;;;;;;22.50;45.80;;;;;;5023568;28;20003;-69
2022/08/09 09:33:03;;;;;;;;;;;22.60;46.30;;;;;;5025209;28;19999;-70
2022/08/09 09:35:30;;;;;;;;;;;22.70;46.00;;;;;;5029006;28;20304;-68
2022/08/09 09:37:56;;;;;;;;;;;22.70;45.80;;;;;;5024188;28;19925;-67
2022/08/09 09:40:40;;;;;;;;;;;22.80;45.50;;;;;;5032275;28;19927;-68
2022/08/09 09:43:08;;;;;;;;;;;22.90;45.40;;;;;;5022691;28;19929;-68
2022/08/09 09:45:46;;;;;;;;;;;22.90;45.20;;;;;;5016143;28;19956;-68
2022/08/09 09:48:12;;;;;;;;;;;23.00;45.30;;;;;;5025742;28;19930;-68
2022/08/09 09:50:39;;;;;;;;;;;23.10;44.90;;;;;;5032099;28;20400;-68
2022/08/09 09:53:06;;;;;;;;;;;23.20;44.90;;;;;;5022285;28;20412;-68
2022/08/09 09:55:32;;;;;;;;;;;23.30;45.00;;;;;;5030241;28;20331;-71
2022/08/09 09:58:00;;;;;;;;;;;23.30;44.60;;;;;;5030948;28;19948;-70
2022/08/09 10:00:28;;;;;;;;;;;23.40;44.40;;;;;;5023723;28;20090;-70
2022/08/09 10:02:54;;;;;;;;;;;23.50;44.30;;;;;;5021884;28;19926;-68
2022/08/09 10:05:22;;;;;;;;;;;23.50;44.10;;;;;;5036391;28;19933;-70
2022/08/09 10:07:49;;;;;;;;;;;23.60;44.20;;;;;;5013959;28;19929;-68
2022/08/09 10:10:28;;;;;;;;;;;23.70;44.00;;;;;;5034981;28;19932;-71
2022/08/09 10:12:54;;;;;;;;;;;23.80;44.00;;;;;;5029508;28;19930;-68
2022/08/09 10:15:21;;;;;;;;;;;23.90;44.00;;;;;;5025975;28;19933;-68
2022/08/09 10:17:49;;;;;;;;;;;23.90;43.70;;;;;;5023995;28;19933;-70
2022/08/09 10:20:26;;;;;;;;;;;24.00;43.80;;;;;;5013978;28;20058;-73
2022/08/09 10:22:54;;;;;;;;;;;24.10;43.70;;;;;;5041380;28;19932;-69
2022/08/09 10:25:21;;;;;;;;;;;24.20;43.60;;;;;;5031881;28;20054;-68
2022/08/09 10:27:48;;;;;;;;;;;24.30;43.10;;;;;;5024204;28;20019;-68
2022/08/09 10:30:15;;;;;;;;;;;24.30;43.20;;;;;;5022218;28;20447;-67
2022/08/09 10:32:42;;;;;;;;;;;24.40;43.30;;;;;;5017672;28;19971;-67
2022/08/09 10:35:10;;;;;;;;;;;24.50;42.20;;;;;;5023056;28;19941;-68
2022/08/09 10:37:37;;;;;;;;;;;24.60;41.90;;;;;;5029824;28;20335;-68
2022/08/09 10:40:05;;;;;;;;;;;24.70;41.90;;;;;;5023752;28;19929;-70
2022/08/09 10:42:31;;;;;;;;;;;24.70;41.60;;;;;;5027686;28;19962;-69
2022/08/09 10:45:08;;;;;;;;;;;24.80;41.40;;;;;;5083626;28;20688;-68
2022/08/09 10:47:41;;;;;;;;;;;24.90;41.20;;;;;;5076150;28;19935;-69
2022/08/09 10:50:15;;;;;;;;;;;24.90;41.00;;;;;;5082697;28;19936;-68
2022/08/09 10:53:02;;;;;;;;;;;25.00;42.10;;;;;;5085260;28;19946;-69
2022/08/09 10:55:29;;;;;;;;;;;25.10;42.00;;;;;;5070848;28;19931;-69
2022/08/09 10:57:56;;;;;;;;;;;25.20;40.90;;;;;;5081962;28;19945;-72
2022/08/09 11:00:35;;;;;;;;;;;25.20;40.60;;;;;;5077570;28;19935;-68
2022/08/09 11:03:02;;;;;;;;;;;25.30;40.20;;;;;;5082836;28;19970;-69
2022/08/09 11:05:29;;;;;;;;;;;25.40;40.10;;;;;;5075588;28;19924;-72
2022/08/09 11:07:56;;;;;;;;;;;25.50;40.20;;;;;;5084579;28;19939;-69
2022/08/09 11:10:46;;;;;;;;;;;25.50;40.00;;;;;;5079801;28;19932;-72
2022/08/09 11:13:13;;;;;;;;;;;25.60;39.90;;;;;;5071473;28;19929;-69
2022/08/09 11:15:41;;;;;;;;;;;25.70;40.00;;;;;;5083200;28;19931;-69
2022/08/09 11:18:11;;;;;;;;;;;25.80;39.70;;;;;;5083992;28;19962;-69
2022/08/09 11:20:40;;;;;;;;;;;25.90;39.40;;;;;;5083705;28;20422;-69
2022/08/09 11:23:06;;;;;;;;;;;25.90;39.10;;;;;;5082028;28;20007;-70
2022/08/09 11:25:35;;;;;;;;;;;26.00;39.00;;;;;;5073892;28;19951;-69
2022/08/09 11:28:22;;;;;;;;;;;26.10;38.80;;;;;;5076759;28;19924;-70
2022/08/09 11:30:50;;;;;;;;;;;26.10;38.80;;;;;;5078383;28;19939;-70
2022/08/09 11:33:31;;;;;;;;;;;26.20;38.80;;;;;;5080261;28;21131;-69
2022/08/09 11:35:58;;;;;;;;;;;26.30;39.20;;;;;;5072037;28;19924;-69
2022/08/09 11:38:27;;;;;;;;;;;26.40;40.70;;;;;;5082787;28;19939;-70
2022/08/09 11:40:53;;;;;;;;;;;26.50;40.70;;;;;;5080904;28;19925;-69
2022/08/09 11:43:35;;;;;;;;;;;26.50;39.40;;;;;;5081283;28;19958;-70
2022/08/09 11:46:04;;;;;;;;;;;26.60;38.30;;;;;;5100622;28;19965;-68
2022/08/09 11:48:31;;;;;;;;;;;26.70;37.60;;;;;;5092299;28;19935;-69
2022/08/09 11:51:02;;;;;;;;;;;26.70;37.90;;;;;;5103245;28;19928;-69
2022/08/09 11:53:30;;;;;;;;;;;26.80;37.70;;;;;;5103041;28;19963;-69
2022/08/09 11:55:58;;;;;;;;;;;26.90;38.30;;;;;;5079544;28;19932;-69
2022/08/09 11:58:41;;;;;;;;;;;26.90;37.50;;;;;;5078173;28;19924;-68
2022/08/09 12:01:09;;;;;;;;;;;27.00;37.20;;;;;;5081941;28;19931;-69
2022/08/09 12:03:36;;;;;;;;;;;27.00;36.90;;;;;;5088418;28;20016;-69
2022/08/09 12:06:09;;;;;;;;;;;27.10;37.00;;;;;;5087029;28;19924;-69
2022/08/09 12:08:36;;;;;;;;;;;27.10;37.40;;;;;;5080730;28;19928;-68
2022/08/09 12:11:03;;;;;;;;;;;27.20;37.50;;;;;;5085817;28;19934;-70
2022/08/09 12:13:31;;;;;;;;;;;27.30;37.00;;;;;;5082762;28;19963;-70
2022/08/09 12:15:59;;;;;;;;;;;27.40;37.20;;;;;;5079240;28;20292;-69
2022/08/09 12:18:27;;;;;;;;;;;27.40;36.80;;;;;;5089593;28;19924;-70
2022/08/09 12:20:53;;;;;;;;;;;27.50;36.80;;;;;;5080030;28;19973;-70
2022/08/09 12:23:20;;;;;;;;;;;27.50;36.60;;;;;;5086144;28;19931;-71
2022/08/09 12:25:47;;;;;;;;;;;27.60;36.80;;;;;;5077562;28;19928;-71
2022/08/09 12:28:15;;;;;;;;;;;27.70;36.90;;;;;;5083249;28;20369;-71
2022/08/09 12:30:41;;;;;;;;;;;27.70;36.50;;;;;;5083521;28;19930;-69
2022/08/09 12:33:08;;;;;;;;;;;27.80;36.30;;;;;;5079072;28;20396;-70
2022/08/09 12:35:36;;;;;;;;;;;27.80;36.20;;;;;;5079673;28;20674;-69
2022/08/09 12:38:16;;;;;;;;;;;27.90;36.60;;;;;;5087630;28;19924;-69
2022/08/09 12:40:43;;;;;;;;;;;28.00;45.40;;;;;;5080711;28;20427;-70
2022/08/09 12:43:10;;;;;;;;;;;28.00;55.40;;;;;;5089366;28;19973;-70
2022/08/09 12:45:36;;;;;;;;;;;28.10;35.50;;;;;;5088286;28;19939;-70
2022/08/09 12:48:03;;;;;;;;;;;28.10;35.80;;;;;;5075509;28;19925;-71
2022/08/09 12:50:30;;;;;;;;;;;28.20;36.30;;;;;;5089015;28;19941;-70
2022/08/09 12:52:58;;;;;;;;;;;28.20;36.30;;;;;;5089252;28;19929;-70
2022/08/09 12:55:25;;;;;;;;;;;28.30;35.50;;;;;;5076292;28;19924;-69
2022/08/09 12:57:52;;;;;;;;;;;28.30;35.50;;;;;;5074445;28;19924;-69
2022/08/09 13:00:20;;;;;;;;;;;28.40;35.50;;;;;;5081584;28;19958;-69
2022/08/09 13:02:50;;;;;;;;;;;28.40;35.50;;;;;;5087171;28;19928;-70
2022/08/09 13:05:17;;;;;;;;;;;28.50;35.90;;;;;;5079389;28;20017;-69
2022/08/09 13:07:59;;;;;;;;;;;28.50;35.30;;;;;;5081710;28;19970;-70
2022/08/09 13:10:27;;;;;;;;;;;28.60;34.70;;;;;;5080465;28;19930;-69
2022/08/09 13:12:53;;;;;;;;;;;28.70;35.00;;;;;;5079445;28;19924;-69
2022/08/09 13:15:20;;;;;;;;;;;28.80;35.00;;;;;;5083240;28;19924;-70
2022/08/09 13:17:46;;;;;;;;;;;28.80;34.60;;;;;;5082977;28;19928;-69
2022/08/09 13:20:13;;;;;;;;;;;28.90;35.20;;;;;;5084130;28;19951;-71
2022/08/09 13:22:47;;;;;;;;;;;28.90;34.80;;;;;;5086939;28;19924;-69
2022/08/09 13:25:14;;;;;;;;;;;29.00;35.30;;;;;;5078876;28;19928;-72
2022/08/09 13:27:42;;;;;;;;;;;29.00;34.90;;;;;;5079126;28;19923;-69
2022/08/09 13:30:10;;;;;;;;;;;29.10;35.00;;;;;;5085575;28;19933;-69
2022/08/09 13:32:43;;;;;;;;;;;29.10;34.50;;;;;;5079101;28;19982;-70
2022/08/09 13:35:10;;;;;;;;;;;29.20;34.60;;;;;;5075115;28;19925;-71
2022/08/09 13:37:36;;;;;;;;;;;29.20;34.90;;;;;;5075556;28;19924;-69
2022/08/09 13:40:03;;;;;;;;;;;29.30;34.10;;;;;;5079770;28;20412;-68
2022/08/09 13:42:30;;;;;;;;;;;29.40;35.30;;;;;;5080578;28;19930;-69
2022/08/09 13:44:59;;;;;;;;;;;29.40;34.00;;;;;;5074976;28;20277;-69
2022/08/09 13:47:26;;;;;;;;;;;29.40;33.30;;;;;;5075008;28;19924;-70
2022/08/09 13:49:52;;;;;;;;;;;29.50;33.70;;;;;;5077012;28;19924;-69
2022/08/09 13:52:19;;;;;;;;;;;29.50;33.30;;;;;;5078388;28;19943;-71
2022/08/09 13:54:45;;;;;;;;;;;29.70;33.70;;;;;;5070016;28;20319;-71
2022/08/09 13:57:12;;;;;;;;;;;29.70;33.10;;;;;;5084348;28;19941;-70
2022/08/09 13:59:38;;;;;;;;;;;29.80;33.10;;;;;;5087781;28;19935;-70
2022/08/09 14:02:07;;;;;;;;;;;29.80;32.90;;;;;;5087780;28;19965;-69
2022/08/09 14:04:33;;;;;;;;;;;29.90;32.90;;;;;;5077042;28;19929;-72
2022/08/09 14:07:00;;;;;;;;;;;29.90;32.80;;;;;;5084532;28;19924;-72
2022/08/09 14:09:27;;;;;;;;;;;30.00;32.50;;;;;;5084698;28;19954;-69
2022/08/09 14:11:55;;;;;;;;;;;30.10;32.00;;;;;;5083409;28;19942;-73
2022/08/09 14:14:21;;;;;;;;;;;30.10;31.80;;;;;;5080100;28;19924;-70
2022/08/09 14:16:49;;;;;;;;;;;30.20;32.00;;;;;;5079850;28;19939;-70
2022/08/09 14:19:17;;;;;;;;;;;30.20;31.60;;;;;;5085154;28;19927;-74